createdAt,value
2023-05-12T00:00:57.920Z,28.11
2023-05-12T00:03:26.847Z,28.13
2023-05-12T00:05:55.335Z,28.16
2023-05-12T00:08:23.646Z,28.18
2023-05-12T00:10:51.958Z,28.24
2023-05-12T00:13:24.318Z,28.26
2023-05-12T00:15:53.187Z,28.31
2023-05-12T00:18:21.574Z,28.36
2023-05-12T00:20:49.907Z,28.41
2023-05-12T00:23:18.494Z,28.46
2023-05-12T00:25:46.779Z,28.50
2023-05-12T00:28:15.097Z,28.52
2023-05-12T00:30:43.358Z,28.57
2023-05-12T00:33:11.869Z,28.58
2023-05-12T00:35:40.170Z,28.59
2023-05-12T00:38:08.713Z,28.61
2023-05-12T00:40:37.338Z,28.61
2023-05-12T00:43:05.925Z,28.63
2023-05-12T00:45:34.376Z,28.69
2023-05-12T00:48:03.058Z,28.76
2023-05-12T00:50:31.471Z,28.80
2023-05-12T00:53:02.759Z,28.86
2023-05-12T00:55:32.273Z,28.90
2023-05-12T00:58:00.928Z,28.96
2023-05-12T01:00:31.001Z,29.03
2023-05-12T01:02:59.756Z,29.11
2023-05-12T01:05:36.578Z,29.19
2023-05-12T01:08:05.526Z,29.22
2023-05-12T01:10:33.879Z,29.24
2023-05-12T01:13:02.178Z,29.30
2023-05-12T01:15:34.070Z,29.36
2023-05-12T01:18:04.420Z,29.38
2023-05-12T01:20:34.858Z,29.40
2023-05-12T01:23:04.464Z,29.45
2023-05-12T01:25:34.381Z,29.56
2023-05-12T01:28:04.596Z,29.60
2023-05-12T01:30:34.887Z,29.63
2023-05-12T01:33:03.320Z,29.65
2023-05-12T01:35:31.671Z,29.66
2023-05-12T01:37:59.956Z,29.65
2023-05-12T01:40:28.284Z,29.66
2023-05-12T01:42:56.638Z,29.65
2023-05-12T01:45:24.930Z,29.67
2023-05-12T01:47:53.299Z,29.70
2023-05-12T01:50:21.982Z,29.70
2023-05-12T01:52:50.411Z,29.74
2023-05-12T01:55:18.739Z,29.74
2023-05-12T01:57:47.016Z,29.76
2023-05-12T02:00:15.800Z,29.81
2023-05-12T02:02:44.242Z,29.85
2023-05-12T02:05:12.604Z,29.90
2023-05-12T02:07:41.043Z,29.93
2023-05-12T02:10:10.315Z,29.96
2023-05-12T02:12:38.658Z,30.02
2023-05-12T02:15:07.461Z,30.05
2023-05-12T02:17:35.763Z,30.06
2023-05-12T02:20:06.110Z,30.12
2023-05-12T02:22:34.391Z,30.21
2023-05-12T02:25:02.873Z,30.25
2023-05-12T02:27:33.337Z,30.34
2023-05-12T02:30:01.651Z,30.42
2023-05-12T02:32:30.575Z,30.48
2023-05-12T02:34:59.364Z,30.56
2023-05-12T02:37:27.619Z,30.65
2023-05-12T02:39:56.098Z,30.71
2023-05-12T02:42:24.821Z,30.78
2023-05-12T02:44:53.106Z,30.84
2023-05-12T02:47:21.376Z,30.91
2023-05-12T02:49:49.683Z,30.95
2023-05-12T02:52:17.990Z,30.96
2023-05-12T02:54:46.370Z,30.99
2023-05-12T02:57:14.710Z,31.03
2023-05-12T02:59:42.968Z,31.07
2023-05-12T03:02:11.372Z,31.17
2023-05-12T03:04:39.753Z,31.20
2023-05-12T03:07:08.131Z,31.22
2023-05-12T03:09:36.488Z,31.21
2023-05-12T03:12:04.944Z,31.20
2023-05-12T03:14:33.236Z,31.18
2023-05-12T03:17:01.549Z,31.18
2023-05-12T03:19:29.887Z,31.16
2023-05-12T03:21:58.244Z,31.06
2023-05-12T03:24:26.545Z,31.00
2023-05-12T03:26:55.888Z,30.93
2023-05-12T03:29:25.419Z,30.87
2023-05-12T03:31:53.980Z,30.84
2023-05-12T03:34:22.493Z,30.77
2023-05-12T03:36:50.771Z,30.72
2023-05-12T03:39:19.065Z,30.71
2023-05-12T03:41:47.342Z,30.70
2023-05-12T03:44:15.656Z,30.65
2023-05-12T03:46:44.293Z,30.65
2023-05-12T03:49:12.880Z,30.67
2023-05-12T03:51:41.303Z,30.67
2023-05-12T03:54:09.939Z,30.68
2023-05-12T03:56:38.296Z,30.73
2023-05-12T03:59:07.284Z,30.75
2023-05-12T04:01:36.559Z,30.81
2023-05-12T04:04:04.995Z,30.91
2023-05-12T04:06:33.488Z,30.96
2023-05-12T04:09:01.952Z,31.01
2023-05-12T04:11:30.218Z,30.99
2023-05-12T04:13:58.632Z,30.98
2023-05-12T04:16:27.028Z,30.99
2023-05-12T04:18:55.390Z,30.98
2023-05-12T04:21:23.903Z,31.00
2023-05-12T04:23:55.226Z,30.97
2023-05-12T04:26:23.518Z,30.96
2023-05-12T04:28:52.267Z,30.92
2023-05-12T04:31:20.580Z,30.90
2023-05-12T04:33:49.045Z,30.81
2023-05-12T04:36:17.370Z,30.73
2023-05-12T04:38:45.693Z,30.65
2023-05-12T04:41:14.181Z,30.54
2023-05-12T04:46:13.554Z,30.18
2023-05-12T04:48:43.983Z,29.96
2023-05-12T04:51:12.471Z,29.77
2023-05-12T04:53:40.768Z,29.61
2023-05-12T04:56:09.583Z,29.46
2023-05-12T04:58:37.878Z,29.38
2023-05-12T05:01:06.396Z,29.33
2023-05-12T05:03:34.917Z,29.32
2023-05-12T05:06:03.291Z,29.35
2023-05-12T05:08:31.623Z,29.39
2023-05-12T05:10:59.910Z,29.45
2023-05-12T05:13:28.206Z,29.55
2023-05-12T05:15:57.512Z,29.65
2023-05-12T05:18:26.108Z,29.72
2023-05-12T05:20:58.385Z,29.78
2023-05-12T05:23:27.757Z,29.77
2023-05-12T05:25:56.288Z,29.76
2023-05-12T05:28:24.664Z,29.69
2023-05-12T05:30:53.549Z,29.62
2023-05-12T05:33:22.132Z,29.55
2023-05-12T05:35:50.609Z,29.48
2023-05-12T05:38:18.965Z,29.46
2023-05-12T05:40:53.654Z,29.43
2023-05-12T05:43:22.841Z,29.42
2023-05-12T05:45:51.704Z,29.39
2023-05-12T05:48:20.317Z,29.36
2023-05-12T05:50:48.931Z,29.30
2023-05-12T05:53:19.590Z,29.18
2023-05-12T05:55:52.115Z,29.13
2023-05-12T05:58:20.472Z,29.05
2023-05-12T06:00:49.048Z,29.01
2023-05-12T06:03:17.552Z,28.94
2023-05-12T06:05:46.323Z,28.90
2023-05-12T06:08:23.222Z,28.84
2023-05-12T06:10:51.624Z,28.80
2023-05-12T06:13:20.052Z,28.75
2023-05-12T06:15:50.137Z,28.72
2023-05-12T06:18:18.869Z,28.68
2023-05-12T06:20:47.747Z,28.63
2023-05-12T06:23:16.616Z,28.58
2023-05-12T06:25:44.994Z,28.53
2023-05-12T06:28:13.292Z,28.48
2023-05-12T06:30:41.602Z,28.43
2023-05-12T06:33:10.044Z,28.41
2023-05-12T06:35:38.456Z,28.36
2023-05-12T06:38:07.629Z,28.34
2023-05-12T06:40:35.915Z,28.29
2023-05-12T06:43:04.203Z,28.21
2023-05-12T06:45:32.519Z,28.14
2023-05-12T06:48:00.909Z,28.09
2023-05-12T06:50:29.264Z,28.03
2023-05-12T06:52:57.956Z,28.02
2023-05-12T06:55:26.268Z,27.99
2023-05-12T06:57:56.625Z,27.99
2023-05-12T07:00:25.986Z,27.97
2023-05-12T07:02:55.278Z,27.96
2023-05-12T07:05:23.865Z,27.94
2023-05-12T07:07:53.653Z,27.92
2023-05-12T07:10:22.663Z,27.91
2023-05-12T07:12:53.330Z,27.88
2023-05-12T07:15:22.093Z,27.86
2023-05-12T07:17:50.697Z,27.82
2023-05-12T07:20:19.130Z,27.79
2023-05-12T07:22:48.613Z,27.75
2023-05-12T07:25:17.601Z,27.70
2023-05-12T07:27:46.576Z,27.65
2023-05-12T07:30:16.027Z,27.61
2023-05-12T07:32:44.380Z,27.60
2023-05-12T07:35:13.449Z,27.59
2023-05-12T07:37:42.322Z,27.55
2023-05-12T07:40:11.168Z,27.52
2023-05-12T07:42:39.549Z,27.50
2023-05-12T07:45:08.487Z,27.47
2023-05-12T07:47:36.894Z,27.43
2023-05-12T07:50:05.427Z,27.38
2023-05-12T07:52:34.912Z,27.35
2023-05-12T07:55:03.212Z,27.32
2023-05-12T07:57:31.538Z,27.29
2023-05-12T08:00:03.402Z,27.29
2023-05-12T08:02:32.537Z,27.29
2023-05-12T08:05:01.091Z,27.30
2023-05-12T08:07:29.638Z,27.27
2023-05-12T08:09:58.234Z,27.25
2023-05-12T08:12:26.682Z,27.24
2023-05-12T08:14:55.042Z,27.23
2023-05-12T08:17:23.801Z,27.21
2023-05-12T08:19:52.504Z,27.20
2023-05-12T08:22:20.853Z,27.20
2023-05-12T08:24:49.236Z,27.19
2023-05-12T08:27:17.683Z,27.17
2023-05-12T08:29:46.084Z,27.17
2023-05-12T08:32:14.729Z,27.17
2023-05-12T08:34:43.165Z,27.17
2023-05-12T08:37:12.716Z,27.18
2023-05-12T08:39:41.231Z,27.17
2023-05-12T08:42:23.980Z,27.18
2023-05-12T08:44:54.894Z,27.19
2023-05-12T08:47:26.349Z,27.18
2023-05-12T08:50:01.969Z,27.17
2023-05-12T08:52:39.894Z,27.18
2023-05-12T08:55:10.692Z,27.17
2023-05-12T08:57:39.882Z,27.18
2023-05-12T09:00:10.900Z,27.20
2023-05-12T09:02:52.740Z,27.19
2023-05-12T09:05:24.139Z,27.18
2023-05-12T09:07:56.462Z,27.20
2023-05-12T09:10:35.191Z,27.20
2023-05-12T09:13:14.209Z,27.24
2023-05-12T09:15:45.833Z,27.26
2023-05-12T09:18:16.460Z,27.27
2023-05-12T09:20:44.950Z,27.30
2023-05-12T09:23:26.966Z,27.32
2023-05-12T09:26:02.568Z,27.36
2023-05-12T09:28:40.225Z,27.37
2023-05-12T09:31:23.565Z,27.40
2023-05-12T09:33:53.429Z,27.43
2023-05-12T09:36:23.725Z,27.43
2023-05-12T09:39:08.995Z,27.45
2023-05-12T09:41:42.122Z,27.46
2023-05-12T09:44:12.072Z,27.48
2023-05-12T09:46:42.918Z,27.47
2023-05-12T09:49:11.616Z,27.48
2023-05-12T09:51:41.247Z,27.47
2023-05-12T09:54:09.587Z,27.47
2023-05-12T09:56:39.584Z,27.45
2023-05-12T09:59:08.311Z,27.45
2023-05-12T10:01:37.297Z,27.43
2023-05-12T10:04:08.900Z,27.42
2023-05-12T10:06:48.253Z,27.43
2023-05-12T10:09:30.189Z,27.44
2023-05-12T10:12:00.431Z,27.44
2023-05-12T10:14:29.074Z,27.45
2023-05-12T10:16:58.883Z,27.46
2023-05-12T10:19:28.058Z,27.47
2023-05-12T10:21:59.285Z,27.48
2023-05-12T10:24:28.574Z,27.47
2023-05-12T10:27:00.605Z,27.48
2023-05-12T10:29:30.909Z,27.51
2023-05-12T10:32:00.943Z,27.49
2023-05-12T10:34:35.801Z,27.48
2023-05-12T10:37:09.992Z,27.47
2023-05-12T10:39:47.942Z,27.46
2023-05-12T10:42:23.924Z,27.45
2023-05-12T10:44:54.115Z,27.45
2023-05-12T10:47:37.349Z,27.45
2023-05-12T10:50:06.485Z,27.44
2023-05-12T10:52:35.283Z,27.44
2023-05-12T10:55:05.599Z,27.43
2023-05-12T10:57:34.658Z,27.42
2023-05-12T11:00:04.974Z,27.40
2023-05-12T11:02:36.270Z,27.38
2023-05-12T11:05:13.366Z,27.37
2023-05-12T11:07:48.316Z,27.36
2023-05-12T11:10:18.134Z,27.34
2023-05-12T11:12:47.242Z,27.33
2023-05-12T11:15:18.069Z,27.30
2023-05-12T11:17:47.752Z,27.30
2023-05-12T11:20:28.836Z,27.28
2023-05-12T11:22:58.772Z,27.25
2023-05-12T11:25:29.293Z,27.24
2023-05-12T11:27:57.904Z,27.20
2023-05-12T11:30:26.418Z,27.18
2023-05-12T11:33:04.664Z,27.15
2023-05-12T11:35:33.529Z,27.12
2023-05-12T11:38:03.794Z,27.07
2023-05-12T11:40:32.306Z,27.06
2023-05-12T11:43:11.496Z,27.04
2023-05-12T11:45:40.007Z,27.03
2023-05-12T11:48:15.688Z,27.01
2023-05-12T11:50:48.573Z,26.99
2023-05-12T11:53:19.996Z,26.98
2023-05-12T11:55:58.367Z,26.96
2023-05-12T11:58:31.240Z,26.96
2023-05-12T12:01:13.844Z,26.94
2023-05-12T12:03:52.517Z,26.94
2023-05-12T12:06:23.381Z,26.94
2023-05-12T12:09:03.414Z,26.94
2023-05-12T12:11:32.956Z,26.94
2023-05-12T12:14:02.374Z,26.93
2023-05-12T12:16:34.133Z,26.92
2023-05-12T12:19:02.537Z,26.90
2023-05-12T12:21:30.962Z,26.89
2023-05-12T12:23:59.843Z,26.89
2023-05-12T12:26:28.183Z,26.91
2023-05-12T12:28:56.652Z,26.92
2023-05-12T12:31:25.046Z,26.93
2023-05-12T12:33:53.531Z,26.94
2023-05-12T12:36:22.610Z,26.96
2023-05-12T12:38:50.908Z,26.96
2023-05-12T12:41:19.305Z,26.97
2023-05-12T12:43:47.635Z,26.97
2023-05-12T12:46:15.989Z,26.97
2023-05-12T12:48:44.354Z,26.95
2023-05-12T12:51:12.995Z,26.94
2023-05-12T12:53:41.449Z,26.92
2023-05-12T12:56:10.035Z,26.92
2023-05-12T12:58:38.984Z,26.91
2023-05-12T13:01:07.735Z,26.91
2023-05-12T13:03:36.260Z,26.89
2023-05-12T13:06:04.743Z,26.87
2023-05-12T13:08:34.462Z,26.87
2023-05-12T13:11:02.987Z,26.86
2023-05-12T13:13:31.386Z,26.86
2023-05-12T13:15:59.751Z,26.85
2023-05-12T13:18:28.576Z,26.86
2023-05-12T13:20:56.957Z,26.84
2023-05-12T13:23:25.343Z,26.85
2023-05-12T13:25:53.795Z,26.85
2023-05-12T13:28:22.115Z,26.85
2023-05-12T13:30:50.665Z,26.84
2023-05-12T13:33:19.165Z,26.84
2023-05-12T13:35:47.921Z,26.85
2023-05-12T13:38:16.547Z,26.85
2023-05-12T13:40:44.994Z,26.85
2023-05-12T13:43:13.889Z,26.87
2023-05-12T13:45:42.272Z,26.86
2023-05-12T13:48:10.631Z,26.88
2023-05-12T13:50:39.141Z,26.87
2023-05-12T13:53:07.606Z,26.87
2023-05-12T13:55:40.848Z,26.86
2023-05-12T13:58:09.697Z,26.87
2023-05-12T14:00:38.124Z,26.86
2023-05-12T14:03:06.576Z,26.86
2023-05-12T14:05:35.178Z,26.87
2023-05-12T14:08:03.672Z,26.87
2023-05-12T14:10:33.522Z,26.87
2023-05-12T14:13:01.957Z,26.88
2023-05-12T14:15:44.313Z,26.89
2023-05-12T14:18:16.966Z,26.89
2023-05-12T14:20:46.214Z,26.90
2023-05-12T14:23:14.724Z,26.90
2023-05-12T14:25:43.110Z,26.88
2023-05-12T14:28:11.601Z,26.89
2023-05-12T14:30:40.081Z,26.88
2023-05-12T14:33:08.865Z,26.90
2023-05-12T14:35:37.206Z,26.90
2023-05-12T14:38:05.508Z,26.90
2023-05-12T14:40:33.862Z,26.90
2023-05-12T14:43:02.279Z,26.91
2023-05-12T14:45:32.441Z,26.90
2023-05-12T14:48:00.850Z,26.91
2023-05-12T14:50:29.467Z,26.90
2023-05-12T14:52:58.404Z,26.91
2023-05-12T14:55:27.290Z,26.91
2023-05-12T14:57:55.667Z,26.92
2023-05-12T15:00:24.425Z,26.91
2023-05-12T15:02:52.954Z,26.89
2023-05-12T15:05:22.780Z,26.88
2023-05-12T15:07:54.129Z,26.89
2023-05-12T15:10:22.533Z,26.88
2023-05-12T15:12:50.904Z,26.88
2023-05-12T15:15:19.588Z,26.91
2023-05-12T15:17:48.250Z,26.91
2023-05-12T15:20:16.793Z,26.91
2023-05-12T15:22:45.137Z,26.92
2023-05-12T15:25:13.556Z,26.93
2023-05-12T15:27:42.196Z,26.93
2023-05-12T15:30:11.486Z,26.93
2023-05-12T15:32:43.093Z,26.93
2023-05-12T15:35:13.594Z,26.95
2023-05-12T15:37:41.940Z,26.93
2023-05-12T15:40:11.098Z,26.93
2023-05-12T15:42:39.559Z,26.91
2023-05-12T15:45:09.858Z,26.91
2023-05-12T15:47:38.295Z,26.89
2023-05-12T15:50:07.131Z,26.88
2023-05-12T15:52:35.607Z,26.88
2023-05-12T15:55:03.950Z,26.87
2023-05-12T15:57:32.391Z,26.87
2023-05-12T16:00:01.293Z,26.86
2023-05-12T16:02:29.774Z,26.86
2023-05-12T16:04:58.369Z,26.85
2023-05-12T16:07:30.397Z,26.86
2023-05-12T16:09:59.509Z,26.86
2023-05-12T16:12:27.947Z,26.86
2023-05-12T16:14:56.282Z,26.86
2023-05-12T16:17:24.845Z,26.87
2023-05-12T16:19:54.684Z,26.86
2023-05-12T16:22:23.074Z,26.88
2023-05-12T16:24:51.566Z,26.87
2023-05-12T16:27:19.955Z,26.86
2023-05-12T16:29:50.432Z,26.85
2023-05-12T16:32:18.868Z,26.84
2023-05-12T16:34:47.904Z,26.83
2023-05-12T16:37:16.209Z,26.83
2023-05-12T16:39:44.526Z,26.81
2023-05-12T16:42:12.829Z,26.80
2023-05-12T16:44:41.286Z,26.79
2023-05-12T16:47:09.844Z,26.78
2023-05-12T16:49:38.150Z,26.77
2023-05-12T16:52:07.020Z,26.77
2023-05-12T16:54:35.425Z,26.77
2023-05-12T16:57:04.127Z,26.76
2023-05-12T16:59:33.306Z,26.75
2023-05-12T17:02:03.105Z,26.75
2023-05-12T17:04:31.455Z,26.72
2023-05-12T17:06:59.857Z,26.72
2023-05-12T17:09:28.451Z,26.71
2023-05-12T17:11:56.850Z,26.72
2023-05-12T17:14:25.220Z,26.70
2023-05-12T17:16:53.937Z,26.69
2023-05-12T17:19:23.091Z,26.68
2023-05-12T17:21:51.559Z,26.67
2023-05-12T17:24:19.921Z,26.68
2023-05-12T17:26:48.659Z,26.67
2023-05-12T17:29:17.935Z,26.64
2023-05-12T17:31:46.434Z,26.67
2023-05-12T17:34:14.928Z,26.66
2023-05-12T17:36:43.375Z,26.66
2023-05-12T17:39:15.835Z,26.64
2023-05-12T17:41:45.225Z,26.63
2023-05-12T17:44:13.584Z,26.63
2023-05-12T17:46:41.996Z,26.63
2023-05-12T17:49:10.409Z,26.61
2023-05-12T17:51:38.855Z,26.62
2023-05-12T17:54:07.324Z,26.61
2023-05-12T17:56:35.826Z,26.59
2023-05-12T17:59:04.661Z,26.59
2023-05-12T18:01:33.161Z,26.54
2023-05-12T18:04:01.584Z,26.55
2023-05-12T18:06:30.057Z,26.54
2023-05-12T18:08:58.451Z,26.54
2023-05-12T18:11:26.888Z,26.54
2023-05-12T18:13:55.310Z,26.54
2023-05-12T18:16:28.890Z,26.52
2023-05-12T18:18:57.919Z,26.50
2023-05-12T18:21:27.046Z,26.51
2023-05-12T18:23:55.504Z,26.49
2023-05-12T18:26:24.191Z,26.47
2023-05-12T18:28:52.583Z,26.46
2023-05-12T18:31:21.031Z,26.45
2023-05-12T18:33:52.744Z,26.45
2023-05-12T18:36:21.150Z,26.45
2023-05-12T18:38:49.503Z,26.46
2023-05-12T18:41:17.874Z,26.45
2023-05-12T18:43:46.964Z,26.45
2023-05-12T18:46:15.379Z,26.46
2023-05-12T18:48:43.755Z,26.45
2023-05-12T18:51:12.660Z,26.45
2023-05-12T18:53:41.004Z,26.45
2023-05-12T18:56:09.370Z,26.45
2023-05-12T18:58:39.664Z,26.45
2023-05-12T19:01:08.190Z,26.45
2023-05-12T19:03:36.612Z,26.45
2023-05-12T19:06:05.097Z,26.44
2023-05-12T19:08:33.439Z,26.45
2023-05-12T19:11:01.827Z,26.45
2023-05-12T19:13:30.352Z,26.46
2023-05-12T19:15:59.026Z,26.46
2023-05-12T19:18:28.018Z,26.46
2023-05-12T19:20:56.748Z,26.47
2023-05-12T19:23:25.520Z,26.46
2023-05-12T19:25:53.925Z,26.46
2023-05-12T19:28:22.417Z,26.46
2023-05-12T19:30:50.931Z,26.45
2023-05-12T19:33:19.609Z,26.46
2023-05-12T19:35:48.207Z,26.46
2023-05-12T19:38:16.630Z,26.45
2023-05-12T19:40:44.944Z,26.44
2023-05-12T19:43:13.573Z,26.45
2023-05-12T19:45:42.080Z,26.44
2023-05-12T19:48:11.121Z,26.43
2023-05-12T19:50:39.598Z,26.43
2023-05-12T19:53:08.019Z,26.43
2023-05-12T19:55:37.453Z,26.42
2023-05-12T19:58:05.826Z,26.42
2023-05-12T20:00:34.443Z,26.42
2023-05-12T20:03:07.919Z,26.43
2023-05-12T20:05:38.317Z,26.43
2023-05-12T20:08:07.275Z,26.44
2023-05-12T20:10:35.617Z,26.44
2023-05-12T20:13:06.805Z,26.44
2023-05-12T20:15:35.293Z,26.43
2023-05-12T20:18:03.762Z,26.43
2023-05-12T20:20:32.414Z,26.42
2023-05-12T20:23:00.745Z,26.43
2023-05-12T20:25:32.408Z,26.42
2023-05-12T20:28:01.030Z,26.42
2023-05-12T20:30:29.342Z,26.42
2023-05-12T20:32:57.754Z,26.42
2023-05-12T20:35:26.569Z,26.42
2023-05-12T20:37:55.041Z,26.40
2023-05-12T20:40:23.848Z,26.40
2023-05-12T20:42:52.615Z,26.38
2023-05-12T20:45:21.283Z,26.38
2023-05-12T20:47:50.361Z,26.37
2023-05-12T20:50:18.941Z,26.36
2023-05-12T20:52:48.300Z,26.36
2023-05-12T20:55:16.961Z,26.33
2023-05-12T20:57:45.324Z,26.33
2023-05-12T21:00:15.559Z,26.33
2023-05-12T21:02:43.983Z,26.32
2023-05-12T21:05:12.543Z,26.30
2023-05-12T21:07:41.706Z,26.29
2023-05-12T21:10:10.467Z,26.28
2023-05-12T21:12:39.520Z,26.27
2023-05-12T21:15:11.452Z,26.26
2023-05-12T21:17:40.442Z,26.26
2023-05-12T21:20:11.004Z,26.26
2023-05-12T21:22:41.528Z,26.25
2023-05-12T21:25:10.928Z,26.26
2023-05-12T21:27:43.463Z,26.24
2023-05-12T21:30:12.382Z,26.23
2023-05-12T21:32:40.864Z,26.24
2023-05-12T21:35:09.590Z,26.23
2023-05-12T21:37:38.356Z,26.23
2023-05-12T21:40:07.431Z,26.22
2023-05-12T21:42:35.945Z,26.21
2023-05-12T21:45:04.593Z,26.21
2023-05-12T21:47:32.971Z,26.21
2023-05-12T21:50:01.767Z,26.22
2023-05-12T21:52:30.154Z,26.21
2023-05-12T21:54:58.623Z,26.21
2023-05-12T21:57:27.044Z,26.21
2023-05-12T21:59:57.128Z,26.20
2023-05-12T22:02:25.647Z,26.21
2023-05-12T22:04:54.306Z,26.21
2023-05-12T22:07:22.973Z,26.22
2023-05-12T22:09:51.497Z,26.22
2023-05-12T22:12:22.330Z,26.22
2023-05-12T22:14:50.945Z,26.22
2023-05-12T22:17:19.309Z,26.22
2023-05-12T22:19:48.078Z,26.21
2023-05-12T22:22:16.524Z,26.20
2023-05-12T22:24:44.926Z,26.21
2023-05-12T22:27:13.352Z,26.20
2023-05-12T22:29:41.719Z,26.21
2023-05-12T22:32:10.042Z,26.19
2023-05-12T22:34:38.373Z,26.20
2023-05-12T22:37:06.863Z,26.18
2023-05-12T22:39:35.178Z,26.16
2023-05-12T22:42:04.150Z,26.15
2023-05-12T22:44:33.016Z,26.13
2023-05-12T22:47:01.434Z,26.13
2023-05-12T22:49:29.772Z,26.10
2023-05-12T22:51:58.276Z,26.10
2023-05-12T22:54:26.791Z,26.09
2023-05-12T22:56:55.105Z,26.10
2023-05-12T22:59:23.441Z,26.09
2023-05-12T23:01:51.967Z,26.10
2023-05-12T23:04:20.433Z,26.09
2023-05-12T23:06:48.854Z,26.09
2023-05-12T23:09:17.211Z,26.10
2023-05-12T23:11:45.554Z,26.11
2023-05-12T23:14:14.030Z,26.11
2023-05-12T23:16:42.504Z,26.10
2023-05-12T23:19:11.030Z,26.11
2023-05-12T23:21:39.510Z,26.10
2023-05-12T23:24:08.146Z,26.10
2023-05-12T23:26:36.518Z,26.10
2023-05-12T23:29:06.944Z,26.11
2023-05-12T23:31:35.331Z,26.10
2023-05-12T23:34:03.697Z,26.10
2023-05-12T23:36:32.779Z,26.11
2023-05-12T23:39:01.271Z,26.12
2023-05-12T23:41:32.556Z,26.12
2023-05-12T23:44:00.969Z,26.13
2023-05-12T23:46:29.448Z,26.15
2023-05-12T23:48:57.782Z,26.17
2023-05-12T23:51:26.837Z,26.19
2023-05-12T23:53:55.250Z,26.20
2023-05-12T23:56:23.786Z,26.22
2023-05-12T23:58:52.144Z,26.27
